sensor_id;sensor_type;location;lat;lon;timestamp;P1;durP1;ratioP1;P2;durP2;ratioP2
8825;SDS011;4449;50.872;4.714;2023-02-28T00:00:12;6.53;;;3.90;;
8825;SDS011;4449;50.872;4.714;2023-02-28T00:02:40;6.23;;;3.83;;
8825;SDS011;4449;50.872;4.714;2023-02-28T00:05:09;7.20;;;4.13;;
8825;SDS011;4449;50.872;4.714;2023-02-28T00:07:39;9.50;;;4.23;;
8825;SDS011;4449;50.872;4.714;2023-02-28T00:10:08;5.00;;;4.50;;
8825;SDS011;4449;50.872;4.714;2023-02-28T00:12:36;4.50;;;3.90;;
8825;SDS011;4449;50.872;4.714;2023-02-28T00:15:05;7.63;;;3.80;;
8825;SDS011;4449;50.872;4.714;2023-02-28T00:17:33;5.10;;;4.53;;
8825;SDS011;4449;50.872;4.714;2023-02-28T00:20:00;8.37;;;4.57;;
8825;SDS011;4449;50.872;4.714;2023-02-28T00:22:39;6.93;;;4.50;;
8825;SDS011;4449;50.872;4.714;2023-02-28T00:25:07;5.70;;;3.63;;
8825;SDS011;4449;50.872;4.714;2023-02-28T00:27:36;4.77;;;3.93;;
8825;SDS011;4449;50.872;4.714;2023-02-28T00:30:04;4.30;;;3.90;;
8825;SDS011;4449;50.872;4.714;2023-02-28T00:32:33;4.00;;;3.60;;
8825;SDS011;4449;50.872;4.714;2023-02-28T00:35:01;4.23;;;3.83;;
8825;SDS011;4449;50.872;4.714;2023-02-28T00:37:29;5.17;;;3.80;;
8825;SDS011;4449;50.872;4.714;2023-02-28T00:39:58;4.67;;;4.27;;
8825;SDS011;4449;50.872;4.714;2023-02-28T00:42:26;5.43;;;4.27;;
8825;SDS011;4449;50.872;4.714;2023-02-28T00:44:54;5.83;;;3.90;;
8825;SDS011;4449;50.872;4.714;2023-02-28T00:47:22;4.23;;;3.83;;
8825;SDS011;4449;50.872;4.714;2023-02-28T00:49:50;5.43;;;4.10;;
8825;SDS011;4449;50.872;4.714;2023-02-28T00:52:18;4.40;;;3.93;;
8825;SDS011;4449;50.872;4.714;2023-02-28T00:54:45;5.20;;;4.27;;
8825;SDS011;4449;50.872;4.714;2023-02-28T00:57:15;4.03;;;3.60;;
8825;SDS011;4449;50.872;4.714;2023-02-28T00:59:42;8.37;;;4.37;;
8825;SDS011;4449;50.872;4.714;2023-02-28T01:02:10;4.93;;;3.77;;
8825;SDS011;4449;50.872;4.714;2023-02-28T01:04:38;6.40;;;3.83;;
8825;SDS011;4449;50.872;4.714;2023-02-28T01:07:06;4.77;;;4.20;;
8825;SDS011;4449;50.872;4.714;2023-02-28T01:09:33;4.23;;;3.83;;
8825;SDS011;4449;50.872;4.714;2023-02-28T01:12:02;4.63;;;4.23;;
8825;SDS011;4449;50.872;4.714;2023-02-28T01:14:31;9.30;;;5.00;;
8825;SDS011;4449;50.872;4.714;2023-02-28T01:16:59;7.40;;;4.50;;
8825;SDS011;4449;50.872;4.714;2023-02-28T01:19:27;4.80;;;4.00;;
8825;SDS011;4449;50.872;4.714;2023-02-28T01:21:55;7.23;;;4.40;;
8825;SDS011;4449;50.872;4.714;2023-02-28T01:24:23;6.60;;;4.20;;
8825;SDS011;4449;50.872;4.714;2023-02-28T01:26:50;5.37;;;4.00;;
8825;SDS011;4449;50.872;4.714;2023-02-28T01:29:18;8.27;;;4.30;;
8825;SDS011;4449;50.872;4.714;2023-02-28T01:31:47;5.30;;;4.00;;
8825;SDS011;4449;50.872;4.714;2023-02-28T01:34:15;7.80;;;4.20;;
8825;SDS011;4449;50.872;4.714;2023-02-28T01:36:44;8.37;;;4.40;;
8825;SDS011;4449;50.872;4.714;2023-02-28T01:39:12;4.37;;;3.57;;
8825;SDS011;4449;50.872;4.714;2023-02-28T01:41:40;5.30;;;3.60;;
8825;SDS011;4449;50.872;4.714;2023-02-28T01:46:52;9.20;;;4.77;;
8825;SDS011;4449;50.872;4.714;2023-02-28T01:49:20;4.33;;;3.93;;
8825;SDS011;4449;50.872;4.714;2023-02-28T01:51:48;9.47;;;4.00;;
8825;SDS011;4449;50.872;4.714;2023-02-28T01:54:18;4.67;;;4.27;;
8825;SDS011;4449;50.872;4.714;2023-02-28T01:56:48;6.53;;;4.53;;
8825;SDS011;4449;50.872;4.714;2023-02-28T01:59:20;4.00;;;3.70;;
8825;SDS011;4449;50.872;4.714;2023-02-28T02:01:48;5.00;;;4.37;;
8825;SDS011;4449;50.872;4.714;2023-02-28T02:04:18;7.10;;;4.30;;
8825;SDS011;4449;50.872;4.714;2023-02-28T02:06:47;7.60;;;4.47;;
8825;SDS011;4449;50.872;4.714;2023-02-28T02:09:15;5.20;;;3.83;;
8825;SDS011;4449;50.872;4.714;2023-02-28T02:11:43;6.20;;;4.17;;
8825;SDS011;4449;50.872;4.714;2023-02-28T02:14:28;5.73;;;4.17;;
8825;SDS011;4449;50.872;4.714;2023-02-28T02:17:04;5.50;;;4.37;;
8825;SDS011;4449;50.872;4.714;2023-02-28T02:19:46;5.60;;;3.97;;
8825;SDS011;4449;50.872;4.714;2023-02-28T02:25:11;5.43;;;4.03;;
8825;SDS011;4449;50.872;4.714;2023-02-28T02:27:45;6.27;;;4.20;;
8825;SDS011;4449;50.872;4.714;2023-02-28T02:33:06;4.47;;;4.10;;
8825;SDS011;4449;50.872;4.714;2023-02-28T02:35:40;4.37;;;4.00;;
8825;SDS011;4449;50.872;4.714;2023-02-28T02:38:08;7.63;;;4.40;;
8825;SDS011;4449;50.872;4.714;2023-02-28T02:40:38;8.30;;;4.23;;
8825;SDS011;4449;50.872;4.714;2023-02-28T02:43:11;7.55;;;4.80;;
8825;SDS011;4449;50.872;4.714;2023-02-28T02:45:42;7.67;;;4.60;;
8825;SDS011;4449;50.872;4.714;2023-02-28T02:48:13;5.87;;;4.23;;
8825;SDS011;4449;50.872;4.714;2023-02-28T02:50:43;5.57;;;4.43;;
8825;SDS011;4449;50.872;4.714;2023-02-28T02:53:12;5.00;;;4.57;;
8825;SDS011;4449;50.872;4.714;2023-02-28T02:55:43;5.18;;;4.68;;
8825;SDS011;4449;50.872;4.714;2023-02-28T02:58:13;6.25;;;4.55;;
8825;SDS011;4449;50.872;4.714;2023-02-28T03:00:42;4.70;;;4.30;;
8825;SDS011;4449;50.872;4.714;2023-02-28T03:03:13;5.77;;;4.60;;
8825;SDS011;4449;50.872;4.714;2023-02-28T03:05:45;7.23;;;4.60;;
8825;SDS011;4449;50.872;4.714;2023-02-28T03:08:13;6.20;;;4.30;;
8825;SDS011;4449;50.872;4.714;2023-02-28T03:10:42;6.70;;;4.97;;
8825;SDS011;4449;50.872;4.714;2023-02-28T03:13:22;5.72;;;4.88;;
8825;SDS011;4449;50.872;4.714;2023-02-28T03:16:04;5.25;;;4.70;;
8825;SDS011;4449;50.872;4.714;2023-02-28T03:18:36;5.38;;;4.45;;
8825;SDS011;4449;50.872;4.714;2023-02-28T03:21:11;8.48;;;4.80;;
8825;SDS011;4449;50.872;4.714;2023-02-28T03:23:44;7.40;;;4.57;;
8825;SDS011;4449;50.872;4.714;2023-02-28T03:26:13;7.07;;;4.70;;
8825;SDS011;4449;50.872;4.714;2023-02-28T03:28:46;6.63;;;5.00;;
8825;SDS011;4449;50.872;4.714;2023-02-28T03:31:17;8.90;;;4.55;;
8825;SDS011;4449;50.872;4.714;2023-02-28T03:33:46;8.45;;;5.68;;
8825;SDS011;4449;50.872;4.714;2023-02-28T03:36:21;5.25;;;4.75;;
8825;SDS011;4449;50.872;4.714;2023-02-28T03:38:51;6.67;;;5.03;;
8825;SDS011;4449;50.872;4.714;2023-02-28T03:41:20;7.45;;;5.07;;
8825;SDS011;4449;50.872;4.714;2023-02-28T03:43:50;5.78;;;5.18;;
8825;SDS011;4449;50.872;4.714;2023-02-28T03:46:22;7.25;;;5.03;;
8825;SDS011;4449;50.872;4.714;2023-02-28T03:48:51;5.35;;;4.85;;
8825;SDS011;4449;50.872;4.714;2023-02-28T03:51:24;6.18;;;5.50;;
8825;SDS011;4449;50.872;4.714;2023-02-28T03:53:54;6.88;;;5.80;;
8825;SDS011;4449;50.872;4.714;2023-02-28T03:56:24;9.32;;;5.53;;
8825;SDS011;4449;50.872;4.714;2023-02-28T03:58:55;6.97;;;5.22;;
8825;SDS011;4449;50.872;4.714;2023-02-28T04:01:25;5.63;;;5.07;;
8825;SDS011;4449;50.872;4.714;2023-02-28T04:03:54;6.03;;;5.25;;
8825;SDS011;4449;50.872;4.714;2023-02-28T04:06:22;8.13;;;5.22;;
8825;SDS011;4449;50.872;4.714;2023-02-28T04:08:51;5.88;;;4.78;;
8825;SDS011;4449;50.872;4.714;2023-02-28T04:11:20;9.07;;;5.65;;
8825;SDS011;4449;50.872;4.714;2023-02-28T04:13:49;7.00;;;5.47;;
8825;SDS011;4449;50.872;4.714;2023-02-28T04:16:17;7.20;;;5.50;;
8825;SDS011;4449;50.872;4.714;2023-02-28T04:18:45;9.55;;;5.78;;
8825;SDS011;4449;50.872;4.714;2023-02-28T04:21:13;9.10;;;5.43;;
8825;SDS011;4449;50.872;4.714;2023-02-28T04:23:40;7.27;;;5.63;;
8825;SDS011;4449;50.872;4.714;2023-02-28T04:26:10;8.23;;;5.33;;
8825;SDS011;4449;50.872;4.714;2023-02-28T04:28:38;9.40;;;5.60;;
8825;SDS011;4449;50.872;4.714;2023-02-28T04:31:05;6.60;;;4.80;;
8825;SDS011;4449;50.872;4.714;2023-02-28T04:33:33;9.13;;;5.97;;
8825;SDS011;4449;50.872;4.714;2023-02-28T04:36:02;8.77;;;5.30;;
8825;SDS011;4449;50.872;4.714;2023-02-28T04:38:32;10.23;;;6.00;;
8825;SDS011;4449;50.872;4.714;2023-02-28T04:40:59;7.18;;;5.95;;
8825;SDS011;4449;50.872;4.714;2023-02-28T04:43:29;6.40;;;5.35;;
8825;SDS011;4449;50.872;4.714;2023-02-28T04:45:57;9.02;;;5.80;;
8825;SDS011;4449;50.872;4.714;2023-02-28T04:48:26;8.03;;;5.63;;
8825;SDS011;4449;50.872;4.714;2023-02-28T04:50:55;7.85;;;5.78;;
8825;SDS011;4449;50.872;4.714;2023-02-28T04:53:24;8.93;;;6.32;;
8825;SDS011;4449;50.872;4.714;2023-02-28T04:55:52;9.60;;;5.93;;
8825;SDS011;4449;50.872;4.714;2023-02-28T04:58:20;13.15;;;6.35;;
8825;SDS011;4449;50.872;4.714;2023-02-28T05:00:50;7.10;;;6.00;;
8825;SDS011;4449;50.872;4.714;2023-02-28T05:03:18;8.82;;;6.10;;
8825;SDS011;4449;50.872;4.714;2023-02-28T05:05:46;7.55;;;6.10;;
8825;SDS011;4449;50.872;4.714;2023-02-28T05:08:13;7.32;;;6.60;;
8825;SDS011;4449;50.872;4.714;2023-02-28T05:10:41;8.48;;;6.20;;
8825;SDS011;4449;50.872;4.714;2023-02-28T05:13:12;9.32;;;6.03;;
8825;SDS011;4449;50.872;4.714;2023-02-28T05:15:40;8.23;;;6.22;;
8825;SDS011;4449;50.872;4.714;2023-02-28T05:18:09;8.95;;;5.90;;
8825;SDS011;4449;50.872;4.714;2023-02-28T05:20:37;12.07;;;7.32;;
8825;SDS011;4449;50.872;4.714;2023-02-28T05:23:04;9.35;;;6.00;;
8825;SDS011;4449;50.872;4.714;2023-02-28T05:25:32;9.75;;;6.28;;
8825;SDS011;4449;50.872;4.714;2023-02-28T05:28:00;8.90;;;5.90;;
8825;SDS011;4449;50.872;4.714;2023-02-28T05:30:28;11.18;;;7.32;;
8825;SDS011;4449;50.872;4.714;2023-02-28T05:32:56;10.80;;;6.30;;
8825;SDS011;4449;50.872;4.714;2023-02-28T05:35:26;13.90;;;7.28;;
8825;SDS011;4449;50.872;4.714;2023-02-28T05:37:54;14.77;;;6.53;;
8825;SDS011;4449;50.872;4.714;2023-02-28T05:40:21;7.45;;;6.22;;
8825;SDS011;4449;50.872;4.714;2023-02-28T05:42:49;12.85;;;7.03;;
8825;SDS011;4449;50.872;4.714;2023-02-28T05:45:18;14.60;;;6.35;;
8825;SDS011;4449;50.872;4.714;2023-02-28T05:47:45;9.68;;;6.68;;
8825;SDS011;4449;50.872;4.714;2023-02-28T05:50:13;11.48;;;6.43;;
8825;SDS011;4449;50.872;4.714;2023-02-28T05:52:42;8.75;;;6.68;;
8825;SDS011;4449;50.872;4.714;2023-02-28T05:55:10;8.73;;;6.35;;
8825;SDS011;4449;50.872;4.714;2023-02-28T05:57:38;9.57;;;6.70;;
8825;SDS011;4449;50.872;4.714;2023-02-28T06:00:06;11.65;;;7.20;;
8825;SDS011;4449;50.872;4.714;2023-02-28T06:02:34;6.95;;;6.20;;
8825;SDS011;4449;50.872;4.714;2023-02-28T06:05:02;10.25;;;6.00;;
8825;SDS011;4449;50.872;4.714;2023-02-28T06:07:29;9.02;;;6.85;;
8825;SDS011;4449;50.872;4.714;2023-02-28T06:09:59;8.45;;;6.90;;
8825;SDS011;4449;50.872;4.714;2023-02-28T06:12:27;9.15;;;6.78;;
8825;SDS011;4449;50.872;4.714;2023-02-28T06:14:54;13.38;;;7.25;;
8825;SDS011;4449;50.872;4.714;2023-02-28T06:17:22;10.57;;;6.90;;
8825;SDS011;4449;50.872;4.714;2023-02-28T06:19:50;13.75;;;6.50;;
8825;SDS011;4449;50.872;4.714;2023-02-28T06:22:18;8.60;;;6.88;;
8825;SDS011;4449;50.872;4.714;2023-02-28T06:24:45;7.38;;;6.47;;
8825;SDS011;4449;50.872;4.714;2023-02-28T06:27:15;10.65;;;7.32;;
8825;SDS011;4449;50.872;4.714;2023-02-28T06:29:42;7.88;;;6.35;;
8825;SDS011;4449;50.872;4.714;2023-02-28T06:32:10;9.82;;;6.88;;
8825;SDS011;4449;50.872;4.714;2023-02-28T06:34:38;11.88;;;6.97;;
8825;SDS011;4449;50.872;4.714;2023-02-28T06:37:06;7.25;;;6.40;;
8825;SDS011;4449;50.872;4.714;2023-02-28T06:39:34;9.38;;;6.60;;
8825;SDS011;4449;50.872;4.714;2023-02-28T06:42:01;9.38;;;7.00;;
8825;SDS011;4449;50.872;4.714;2023-02-28T06:44:31;8.32;;;6.10;;
8825;SDS011;4449;50.872;4.714;2023-02-28T06:47:00;9.65;;;6.57;;
8825;SDS011;4449;50.872;4.714;2023-02-28T06:49:29;12.48;;;6.95;;
8825;SDS011;4449;50.872;4.714;2023-02-28T06:51:57;10.55;;;7.10;;
8825;SDS011;4449;50.872;4.714;2023-02-28T06:54:25;13.93;;;6.80;;
8825;SDS011;4449;50.872;4.714;2023-02-28T06:56:52;9.02;;;5.97;;
8825;SDS011;4449;50.872;4.714;2023-02-28T06:59:20;15.45;;;6.88;;
8825;SDS011;4449;50.872;4.714;2023-02-28T07:01:49;12.15;;;6.63;;
8825;SDS011;4449;50.872;4.714;2023-02-28T07:04:17;17.58;;;8.57;;
8825;SDS011;4449;50.872;4.714;2023-02-28T07:06:45;9.27;;;6.53;;
8825;SDS011;4449;50.872;4.714;2023-02-28T07:09:13;9.65;;;6.93;;
8825;SDS011;4449;50.872;4.714;2023-02-28T07:11:41;11.90;;;6.68;;
8825;SDS011;4449;50.872;4.714;2023-02-28T07:14:09;10.50;;;6.88;;
8825;SDS011;4449;50.872;4.714;2023-02-28T07:16:36;8.50;;;6.45;;
8825;SDS011;4449;50.872;4.714;2023-02-28T07:19:05;11.13;;;6.43;;
8825;SDS011;4449;50.872;4.714;2023-02-28T07:21:33;7.90;;;6.90;;
8825;SDS011;4449;50.872;4.714;2023-02-28T07:24:01;10.50;;;6.47;;
8825;SDS011;4449;50.872;4.714;2023-02-28T07:26:29;10.23;;;7.60;;
8825;SDS011;4449;50.872;4.714;2023-02-28T07:28:59;9.18;;;6.45;;
8825;SDS011;4449;50.872;4.714;2023-02-28T07:31:27;7.57;;;6.68;;
8825;SDS011;4449;50.872;4.714;2023-02-28T07:33:55;11.85;;;7.22;;
8825;SDS011;4449;50.872;4.714;2023-02-28T07:36:24;11.45;;;6.80;;
8825;SDS011;4449;50.872;4.714;2023-02-28T07:38:52;9.68;;;6.90;;
8825;SDS011;4449;50.872;4.714;2023-02-28T07:41:20;8.30;;;6.50;;
8825;SDS011;4449;50.872;4.714;2023-02-28T07:43:52;12.88;;;6.78;;
8825;SDS011;4449;50.872;4.714;2023-02-28T07:46:20;6.50;;;5.90;;
8825;SDS011;4449;50.872;4.714;2023-02-28T07:48:48;7.63;;;5.80;;
8825;SDS011;4449;50.872;4.714;2023-02-28T07:51:16;11.13;;;7.10;;
8825;SDS011;4449;50.872;4.714;2023-02-28T07:53:45;9.68;;;6.50;;
8825;SDS011;4449;50.872;4.714;2023-02-28T07:56:13;7.43;;;5.90;;
8825;SDS011;4449;50.872;4.714;2023-02-28T07:58:41;7.25;;;5.53;;
8825;SDS011;4449;50.872;4.714;2023-02-28T08:01:09;7.80;;;5.88;;
8825;SDS011;4449;50.872;4.714;2023-02-28T08:03:37;5.80;;;5.30;;
8825;SDS011;4449;50.872;4.714;2023-02-28T08:06:06;6.47;;;5.40;;
8825;SDS011;4449;50.872;4.714;2023-02-28T08:08:34;6.55;;;5.95;;
8825;SDS011;4449;50.872;4.714;2023-02-28T08:11:03;7.13;;;5.50;;
8825;SDS011;4449;50.872;4.714;2023-02-28T08:13:31;6.53;;;5.37;;
8825;SDS011;4449;50.872;4.714;2023-02-28T08:16:00;5.97;;;4.50;;
8825;SDS011;4449;50.872;4.714;2023-02-28T08:18:28;4.82;;;4.47;;
8825;SDS011;4449;50.872;4.714;2023-02-28T08:20:56;5.18;;;4.68;;
8825;SDS011;4449;50.872;4.714;2023-02-28T08:23:24;5.95;;;4.25;;
8825;SDS011;4449;50.872;4.714;2023-02-28T08:25:52;6.13;;;5.03;;
8825;SDS011;4449;50.872;4.714;2023-02-28T08:28:22;5.83;;;4.63;;
8825;SDS011;4449;50.872;4.714;2023-02-28T08:30:50;5.05;;;4.65;;
8825;SDS011;4449;50.872;4.714;2023-02-28T08:33:19;6.00;;;4.80;;
8825;SDS011;4449;50.872;4.714;2023-02-28T08:35:46;4.80;;;4.40;;
8825;SDS011;4449;50.872;4.714;2023-02-28T08:38:14;8.90;;;4.22;;
8825;SDS011;4449;50.872;4.714;2023-02-28T08:40:42;5.20;;;4.63;;
8825;SDS011;4449;50.872;4.714;2023-02-28T08:43:10;6.78;;;4.82;;
8825;SDS011;4449;50.872;4.714;2023-02-28T08:45:39;7.45;;;4.90;;
8825;SDS011;4449;50.872;4.714;2023-02-28T08:48:07;6.50;;;4.53;;
8825;SDS011;4449;50.872;4.714;2023-02-28T08:50:35;5.35;;;4.13;;
8825;SDS011;4449;50.872;4.714;2023-02-28T08:53:06;6.43;;;4.35;;
8825;SDS011;4449;50.872;4.714;2023-02-28T08:55:33;5.75;;;4.82;;
8825;SDS011;4449;50.872;4.714;2023-02-28T08:58:01;8.25;;;4.53;;
8825;SDS011;4449;50.872;4.714;2023-02-28T09:00:29;14.20;;;4.45;;
8825;SDS011;4449;50.872;4.714;2023-02-28T09:02:58;5.47;;;4.18;;
8825;SDS011;4449;50.872;4.714;2023-02-28T09:05:26;5.15;;;3.72;;
8825;SDS011;4449;50.872;4.714;2023-02-28T09:07:55;5.15;;;3.97;;
8825;SDS011;4449;50.872;4.714;2023-02-28T09:10:23;4.22;;;3.53;;
8825;SDS011;4449;50.872;4.714;2023-02-28T09:12:50;3.80;;;3.60;;
8825;SDS011;4449;50.872;4.714;2023-02-28T09:15:18;5.20;;;3.67;;
8825;SDS011;4449;50.872;4.714;2023-02-28T09:17:46;6.00;;;3.63;;
8825;SDS011;4449;50.872;4.714;2023-02-28T09:20:16;4.10;;;3.20;;
8825;SDS011;4449;50.872;4.714;2023-02-28T09:22:43;3.50;;;3.20;;
8825;SDS011;4449;50.872;4.714;2023-02-28T09:25:11;7.30;;;3.50;;
8825;SDS011;4449;50.872;4.714;2023-02-28T09:27:39;3.63;;;3.33;;
8825;SDS011;4449;50.872;4.714;2023-02-28T09:30:07;6.33;;;3.17;;
8825;SDS011;4449;50.872;4.714;2023-02-28T09:32:35;3.50;;;3.20;;
8825;SDS011;4449;50.872;4.714;2023-02-28T09:35:03;2.83;;;2.63;;
8825;SDS011;4449;50.872;4.714;2023-02-28T09:37:33;5.33;;;2.70;;
8825;SDS011;4449;50.872;4.714;2023-02-28T09:40:01;3.53;;;3.27;;
8825;SDS011;4449;50.872;4.714;2023-02-28T10:41:45;2.37;;;2.10;;
8825;SDS011;4449;50.872;4.714;2023-02-28T10:44:15;2.10;;;2.00;;
8825;SDS011;4449;50.872;4.714;2023-02-28T10:46:45;3.80;;;2.00;;
8825;SDS011;4449;50.872;4.714;2023-02-28T10:49:14;1.60;;;1.60;;
8825;SDS011;4449;50.872;4.714;2023-02-28T10:51:43;2.60;;;1.93;;
8825;SDS011;4449;50.872;4.714;2023-02-28T10:54:18;2.80;;;2.57;;
8825;SDS011;4449;50.872;4.714;2023-02-28T10:56:49;2.40;;;2.20;;
8825;SDS011;4449;50.872;4.714;2023-02-28T10:59:32;2.70;;;2.07;;
8825;SDS011;4449;50.872;4.714;2023-02-28T11:02:00;2.13;;;2.03;;
8825;SDS011;4449;50.872;4.714;2023-02-28T11:04:32;2.80;;;2.60;;
8825;SDS011;4449;50.872;4.714;2023-02-28T11:07:02;2.73;;;2.40;;
8825;SDS011;4449;50.872;4.714;2023-02-28T11:09:32;2.53;;;2.33;;
8825;SDS011;4449;50.872;4.714;2023-02-28T11:12:04;3.33;;;1.80;;
8825;SDS011;4449;50.872;4.714;2023-02-28T11:14:34;2.10;;;2.10;;
8825;SDS011;4449;50.872;4.714;2023-02-28T11:17:11;2.43;;;1.87;;
8825;SDS011;4449;50.872;4.714;2023-02-28T11:19:41;4.53;;;3.27;;
8825;SDS011;4449;50.872;4.714;2023-02-28T11:22:15;5.63;;;2.37;;
8825;SDS011;4449;50.872;4.714;2023-02-28T11:24:44;2.00;;;1.90;;
8825;SDS011;4449;50.872;4.714;2023-02-28T11:27:26;2.07;;;1.97;;
8825;SDS011;4449;50.872;4.714;2023-02-28T11:29:53;2.67;;;2.20;;
8825;SDS011;4449;50.872;4.714;2023-02-28T11:32:22;2.10;;;2.00;;
8825;SDS011;4449;50.872;4.714;2023-02-28T11:34:59;2.70;;;2.50;;
8825;SDS011;4449;50.872;4.714;2023-02-28T11:37:28;2.43;;;2.23;;
8825;SDS011;4449;50.872;4.714;2023-02-28T11:39:56;1.83;;;1.73;;
8825;SDS011;4449;50.872;4.714;2023-02-28T11:42:32;1.70;;;1.70;;
8825;SDS011;4449;50.872;4.714;2023-02-28T11:45:16;2.10;;;2.00;;
8825;SDS011;4449;50.872;4.714;2023-02-28T11:47:47;2.03;;;2.00;;
8825;SDS011;4449;50.872;4.714;2023-02-28T11:50:19;3.00;;;1.97;;
8825;SDS011;4449;50.872;4.714;2023-02-28T11:52:50;2.17;;;2.07;;
8825;SDS011;4449;50.872;4.714;2023-02-28T11:55:20;2.43;;;1.73;;
8825;SDS011;4449;50.872;4.714;2023-02-28T11:57:55;2.10;;;1.90;;
8825;SDS011;4449;50.872;4.714;2023-02-28T12:00:28;4.40;;;1.87;;
8825;SDS011;4449;50.872;4.714;2023-02-28T12:03:01;2.25;;;2.15;;
8825;SDS011;4449;50.872;4.714;2023-02-28T12:05:36;2.20;;;2.10;;
8825;SDS011;4449;50.872;4.714;2023-02-28T12:08:08;2.47;;;2.33;;
8825;SDS011;4449;50.872;4.714;2023-02-28T12:10:41;2.50;;;2.30;;
8825;SDS011;4449;50.872;4.714;2023-02-28T12:13:15;2.20;;;2.10;;
8825;SDS011;4449;50.872;4.714;2023-02-28T12:15:48;7.00;;;2.33;;
8825;SDS011;4449;50.872;4.714;2023-02-28T12:18:22;3.03;;;2.00;;
8825;SDS011;4449;50.872;4.714;2023-02-28T12:20:53;2.10;;;2.00;;
8825;SDS011;4449;50.872;4.714;2023-02-28T12:23:29;2.20;;;2.00;;
8825;SDS011;4449;50.872;4.714;2023-02-28T12:26:07;2.90;;;2.23;;
8825;SDS011;4449;50.872;4.714;2023-02-28T12:28:42;2.10;;;2.00;;
8825;SDS011;4449;50.872;4.714;2023-02-28T12:31:14;6.13;;;2.37;;
8825;SDS011;4449;50.872;4.714;2023-02-28T12:33:45;1.77;;;1.70;;
8825;SDS011;4449;50.872;4.714;2023-02-28T12:36:15;1.97;;;1.87;;
8825;SDS011;4449;50.872;4.714;2023-02-28T12:38:45;2.80;;;2.60;;
8825;SDS011;4449;50.872;4.714;2023-02-28T12:41:16;2.20;;;2.00;;
8825;SDS011;4449;50.872;4.714;2023-02-28T12:43:48;2.33;;;2.20;;
8825;SDS011;4449;50.872;4.714;2023-02-28T12:46:17;2.20;;;2.00;;
8825;SDS011;4449;50.872;4.714;2023-02-28T12:48:47;2.60;;;2.50;;
8825;SDS011;4449;50.872;4.714;2023-02-28T12:51:15;2.83;;;2.57;;
8825;SDS011;4449;50.872;4.714;2023-02-28T12:53:49;6.77;;;2.30;;
8825;SDS011;4449;50.872;4.714;2023-02-28T12:56:21;1.90;;;1.83;;
8825;SDS011;4449;50.872;4.714;2023-02-28T12:58:54;2.27;;;2.17;;
8825;SDS011;4449;50.872;4.714;2023-02-28T13:01:33;2.87;;;2.63;;
8825;SDS011;4449;50.872;4.714;2023-02-28T13:04:08;1.87;;;1.83;;
8825;SDS011;4449;50.872;4.714;2023-02-28T13:06:45;2.27;;;2.17;;
8825;SDS011;4449;50.872;4.714;2023-02-28T13:09:19;2.53;;;2.33;;
8825;SDS011;4449;50.872;4.714;2023-02-28T13:11:47;2.40;;;2.27;;
8825;SDS011;4449;50.872;4.714;2023-02-28T13:14:20;4.20;;;2.10;;
8825;SDS011;4449;50.872;4.714;2023-02-28T13:17:00;2.10;;;2.00;;
8825;SDS011;4449;50.872;4.714;2023-02-28T13:19:29;2.47;;;1.90;;
8825;SDS011;4449;50.872;4.714;2023-02-28T13:21:58;2.20;;;2.10;;
8825;SDS011;4449;50.872;4.714;2023-02-28T13:24:42;2.17;;;2.00;;
8825;SDS011;4449;50.872;4.714;2023-02-28T13:27:18;3.73;;;2.20;;
8825;SDS011;4449;50.872;4.714;2023-02-28T13:29:51;3.53;;;2.00;;
8825;SDS011;4449;50.872;4.714;2023-02-28T13:32:30;3.20;;;1.90;;
8825;SDS011;4449;50.872;4.714;2023-02-28T13:37:45;2.23;;;2.13;;
8825;SDS011;4449;50.872;4.714;2023-02-28T13:40:28;2.60;;;2.20;;
8825;SDS011;4449;50.872;4.714;2023-02-28T13:42:56;10.03;;;2.30;;
8825;SDS011;4449;50.872;4.714;2023-02-28T13:45:26;4.70;;;2.03;;
8825;SDS011;4449;50.872;4.714;2023-02-28T13:47:56;3.37;;;2.10;;
8825;SDS011;4449;50.872;4.714;2023-02-28T13:50:27;3.30;;;2.33;;
8825;SDS011;4449;50.872;4.714;2023-02-28T13:53:00;4.53;;;2.30;;
8825;SDS011;4449;50.872;4.714;2023-02-28T13:55:31;2.10;;;2.00;;
8825;SDS011;4449;50.872;4.714;2023-02-28T13:58:09;2.27;;;2.17;;
8825;SDS011;4449;50.872;4.714;2023-02-28T14:00:45;2.80;;;2.30;;
8825;SDS011;4449;50.872;4.714;2023-02-28T14:03:24;2.73;;;2.40;;
8825;SDS011;4449;50.872;4.714;2023-02-28T14:06:15;2.40;;;2.30;;
8825;SDS011;4449;50.872;4.714;2023-02-28T14:08:49;4.13;;;2.23;;
8825;SDS011;4449;50.872;4.714;2023-02-28T14:11:27;1.83;;;1.83;;
8825;SDS011;4449;50.872;4.714;2023-02-28T14:13:56;2.30;;;2.20;;
8825;SDS011;4449;50.872;4.714;2023-02-28T14:16:25;3.37;;;2.53;;
8825;SDS011;4449;50.872;4.714;2023-02-28T14:18:56;3.73;;;2.60;;
8825;SDS011;4449;50.872;4.714;2023-02-28T14:21:26;2.30;;;2.20;;
8825;SDS011;4449;50.872;4.714;2023-02-28T14:26:53;4.43;;;2.53;;
8825;SDS011;4449;50.872;4.714;2023-02-28T14:29:28;2.50;;;2.30;;
8825;SDS011;4449;50.872;4.714;2023-02-28T14:32:01;2.70;;;2.47;;
8825;SDS011;4449;50.872;4.714;2023-02-28T14:34:41;2.57;;;2.37;;
8825;SDS011;4449;50.872;4.714;2023-02-28T14:37:13;2.97;;;2.77;;
8825;SDS011;4449;50.872;4.714;2023-02-28T14:39:41;2.47;;;2.27;;
8825;SDS011;4449;50.872;4.714;2023-02-28T14:45:03;2.70;;;2.50;;
8825;SDS011;4449;50.872;4.714;2023-02-28T14:47:33;2.80;;;2.60;;
8825;SDS011;4449;50.872;4.714;2023-02-28T14:50:03;2.47;;;2.23;;
8825;SDS011;4449;50.872;4.714;2023-02-28T14:52:32;2.67;;;2.53;;
8825;SDS011;4449;50.872;4.714;2023-02-28T14:55:00;2.40;;;2.30;;
8825;SDS011;4449;50.872;4.714;2023-02-28T14:57:31;2.73;;;2.50;;
8825;SDS011;4449;50.872;4.714;2023-02-28T15:00:00;3.00;;;2.77;;
8825;SDS011;4449;50.872;4.714;2023-02-28T15:02:31;2.43;;;2.30;;
8825;SDS011;4449;50.872;4.714;2023-02-28T15:05:02;2.50;;;2.40;;
8825;SDS011;4449;50.872;4.714;2023-02-28T15:07:37;5.87;;;2.83;;
8825;SDS011;4449;50.872;4.714;2023-02-28T15:10:09;4.43;;;2.60;;
8825;SDS011;4449;50.872;4.714;2023-02-28T15:12:38;3.30;;;2.73;;
8825;SDS011;4449;50.872;4.714;2023-02-28T15:15:14;3.17;;;2.37;;
8825;SDS011;4449;50.872;4.714;2023-02-28T15:17:42;2.10;;;2.00;;
8825;SDS011;4449;50.872;4.714;2023-02-28T15:20:14;2.67;;;2.57;;
8825;SDS011;4449;50.872;4.714;2023-02-28T15:22:43;2.60;;;2.40;;
8825;SDS011;4449;50.872;4.714;2023-02-28T15:25:13;2.50;;;2.40;;
8825;SDS011;4449;50.872;4.714;2023-02-28T15:27:42;4.50;;;2.60;;
8825;SDS011;4449;50.872;4.714;2023-02-28T15:30:14;3.50;;;3.00;;
8825;SDS011;4449;50.872;4.714;2023-02-28T15:32:42;2.50;;;2.27;;
8825;SDS011;4449;50.872;4.714;2023-02-28T15:35:26;3.07;;;2.87;;
8825;SDS011;4449;50.872;4.714;2023-02-28T15:37:55;2.50;;;2.40;;
8825;SDS011;4449;50.872;4.714;2023-02-28T15:40:24;2.67;;;2.47;;
8825;SDS011;4449;50.872;4.714;2023-02-28T15:43:03;2.97;;;2.77;;
8825;SDS011;4449;50.872;4.714;2023-02-28T15:45:37;3.10;;;2.90;;
8825;SDS011;4449;50.872;4.714;2023-02-28T15:48:13;2.73;;;2.53;;
8825;SDS011;4449;50.872;4.714;2023-02-28T15:50:43;2.53;;;2.33;;
8825;SDS011;4449;50.872;4.714;2023-02-28T15:53:12;2.70;;;2.60;;
8825;SDS011;4449;50.872;4.714;2023-02-28T15:55:40;4.00;;;2.80;;
8825;SDS011;4449;50.872;4.714;2023-02-28T15:58:08;2.77;;;2.57;;
8825;SDS011;4449;50.872;4.714;2023-02-28T16:00:38;6.93;;;2.77;;
8825;SDS011;4449;50.872;4.714;2023-02-28T16:03:26;2.60;;;2.40;;
8825;SDS011;4449;50.872;4.714;2023-02-28T16:06:21;2.93;;;2.70;;
8825;SDS011;4449;50.872;4.714;2023-02-28T16:08:52;6.70;;;2.70;;
8825;SDS011;4449;50.872;4.714;2023-02-28T16:11:20;2.53;;;2.40;;
8825;SDS011;4449;50.872;4.714;2023-02-28T16:13:49;3.63;;;2.73;;
8825;SDS011;4449;50.872;4.714;2023-02-28T16:16:17;5.50;;;2.43;;
8825;SDS011;4449;50.872;4.714;2023-02-28T16:18:45;2.90;;;2.70;;
8825;SDS011;4449;50.872;4.714;2023-02-28T16:21:13;2.83;;;2.63;;
8825;SDS011;4449;50.872;4.714;2023-02-28T16:23:42;2.27;;;2.17;;
8825;SDS011;4449;50.872;4.714;2023-02-28T16:26:12;2.37;;;2.17;;
8825;SDS011;4449;50.872;4.714;2023-02-28T16:28:43;3.70;;;2.67;;
8825;SDS011;4449;50.872;4.714;2023-02-28T16:31:11;2.50;;;2.30;;
8825;SDS011;4449;50.872;4.714;2023-02-28T16:33:42;2.73;;;2.53;;
8825;SDS011;4449;50.872;4.714;2023-02-28T16:36:12;2.30;;;2.20;;
8825;SDS011;4449;50.872;4.714;2023-02-28T16:38:42;2.83;;;2.63;;
8825;SDS011;4449;50.872;4.714;2023-02-28T16:41:12;2.50;;;2.40;;
8825;SDS011;4449;50.872;4.714;2023-02-28T16:43:44;5.10;;;2.87;;
8825;SDS011;4449;50.872;4.714;2023-02-28T16:46:12;2.83;;;2.23;;
8825;SDS011;4449;50.872;4.714;2023-02-28T16:48:40;2.43;;;2.33;;